Time;durP1;ratioP1;P1;durP2;ratioP2;P2;SDS_P1;SDS_P2;PMS_P1;PMS_P2;Temp;Humidity;BMP_temperature;BMP_pressure;BME280_temperature;BME280_humidity;BME280_pressure;Samples;Min_cycle;Max_cycle;Signal;HPM_P1;HPM_P2
2021/11/06 00:00:37;;;;;;;;;8.75;6.00;;;;;20.70;39.13;102571.59;4997321;28;45397;-55
2021/11/06 00:03:03;;;;;;;;;4.25;4.25;;;;;20.73;39.24;102577.69;4997670;28;45383;-56
2021/11/06 00:05:29;;;;;;;;;7.75;7.25;;;;;20.70;39.54;102574.22;4997307;28;45711;-56
2021/11/06 00:07:55;;;;;;;;;9.00;8.00;;;;;20.72;39.29;102578.59;4979435;28;46993;-57
2021/11/06 00:10:20;;;;;;;;;6.75;6.75;;;;;20.70;39.33;102576.88;4997228;28;45448;-57
2021/11/06 00:12:47;;;;;;;;;7.00;5.50;;;;;20.66;39.22;102569.97;4997359;28;45379;-57
2021/11/06 00:15:12;;;;;;;;;7.75;7.00;;;;;20.69;38.99;102580.41;4997187;28;45503;-60
2021/11/06 00:17:39;;;;;;;;;6.75;5.25;;;;;20.69;39.11;102579.56;4979562;28;45524;-56
2021/11/06 00:20:06;;;;;;;;;6.50;6.50;;;;;20.67;39.29;102581.34;4997567;28;45203;-57
2021/11/06 00:22:32;;;;;;;;;9.00;8.00;;;;;20.67;38.89;102584.84;4997706;28;45408;-57
2021/11/06 00:24:59;;;;;;;;;6.75;6.75;;;;;20.67;39.31;102584.00;4997482;28;45543;-51
2021/11/06 00:27:25;;;;;;;;;6.00;6.00;;;;;20.66;39.16;102585.78;4996967;28;47320;-57
2021/11/06 00:29:50;;;;;;;;;7.25;7.25;;;;;20.66;38.94;102584.91;4996934;28;45907;-56
2021/11/06 00:32:16;;;;;;;;;6.75;6.75;;;;;20.66;39.19;102584.91;4997216;28;45411;-56
2021/11/06 00:34:41;;;;;;;;;9.50;6.50;;;;;20.64;39.39;102586.72;4996606;28;45291;-61
2021/11/06 00:37:06;;;;;;;;;7.75;7.25;;;;;20.64;39.43;102579.69;4996917;28;45514;-51
2021/11/06 00:39:33;;;;;;;;;7.75;7.50;;;;;20.64;39.24;102581.44;4997114;28;45397;-60
2021/11/06 00:41:58;;;;;;;;;7.25;7.00;;;;;20.63;39.50;102579.72;4996868;28;45247;-57
2021/11/06 00:44:24;;;;;;;;;10.50;9.75;;;;;20.62;38.94;102578.84;4997054;28;45567;-55
2021/11/06 00:46:50;;;;;;;;;7.00;7.00;;;;;20.60;39.40;102572.75;4996681;28;46534;-60
2021/11/06 00:49:15;;;;;;;;;8.50;8.00;;;;;20.62;39.05;102577.97;4996609;28;45730;-52
2021/11/06 00:51:40;;;;;;;;;6.75;6.75;;;;;20.61;38.97;102577.13;4996955;28;45290;-52
2021/11/06 00:54:06;;;;;;;;;9.00;8.00;;;;;20.60;38.99;102580.66;4997267;28;45315;-54
2021/11/06 00:56:31;;;;;;;;;7.00;7.00;;;;;20.61;38.93;102582.41;4996373;28;45364;-52
2021/11/06 00:58:56;;;;;;;;;6.00;6.00;;;;;20.58;39.00;102565.81;4996614;28;45322;-52
2021/11/06 01:01:22;;;;;;;;;7.00;6.00;;;;;20.58;39.34;102571.94;4995636;28;45431;-49
2021/11/06 01:03:48;;;;;;;;;7.75;5.25;;;;;20.58;39.04;102569.31;4996419;28;45359;-52
2021/11/06 01:06:13;;;;;;;;;8.75;7.50;;;;;20.57;39.35;102554.41;4996395;28;46589;-47
2021/11/06 01:08:39;;;;;;;;;7.00;7.00;;;;;20.53;39.38;102551.00;4996385;28;45524;-49
2021/11/06 01:11:04;;;;;;;;;7.00;7.00;;;;;20.59;39.29;102551.75;4996934;28;45499;-54
2021/11/06 01:13:30;;;;;;;;;9.00;7.00;;;;;20.58;39.41;102556.13;4996780;28;45595;-55
2021/11/06 01:15:55;;;;;;;;;5.00;5.00;;;;;20.57;38.76;102558.81;4996124;28;45449;-48
2021/11/06 01:18:21;;;;;;;;;8.00;6.00;;;;;20.55;38.89;102556.25;4996196;28;45412;-51
2021/11/06 01:20:46;;;;;;;;;8.25;7.00;;;;;20.54;39.29;102559.78;4996460;28;45263;-46
2021/11/06 01:23:12;;;;;;;;;9.50;8.00;;;;;20.53;39.43;102558.91;4996353;28;45666;-45
2021/11/06 01:25:37;;;;;;;;;7.00;6.00;;;;;20.55;38.99;102556.25;4978846;28;46360;-55
2021/11/06 01:28:03;;;;;;;;;10.25;8.25;;;;;20.55;39.13;102558.88;4996067;28;45271;-49
2021/11/06 01:30:28;;;;;;;;;6.50;6.00;;;;;20.58;39.08;102561.41;4996425;28;45382;-46
2021/11/06 01:32:54;;;;;;;;;7.25;7.25;;;;;20.61;39.25;102561.31;4996455;28;45568;-47
2021/11/06 01:35:19;;;;;;;;;7.25;6.00;;;;;20.67;39.48;102568.19;4995938;28;45579;-52
2021/11/06 01:37:46;;;;;;;;;8.00;7.25;;;;;20.72;39.05;102560.16;4996066;28;45257;-48
2021/11/06 01:40:13;;;;;;;;;8.50;6.75;;;;;20.76;39.47;102560.03;4996166;28;45493;-45
2021/11/06 01:42:40;;;;;;;;;8.50;7.00;;;;;20.82;38.91;102564.28;4996562;28;45421;-47
2021/11/06 01:45:07;;;;;;;;;8.25;7.00;;;;;20.85;38.86;102554.50;4995997;28;45508;-47
2021/11/06 01:47:32;;;;;;;;;6.50;6.00;;;;;20.90;39.03;102554.38;4979764;28;46517;-46
2021/11/06 01:49:58;;;;;;;;;6.00;6.00;;;;;20.95;39.48;102555.09;4999455;28;45392;-50
2021/11/06 01:52:23;;;;;;;;;7.75;7.00;;;;;20.99;38.79;102551.47;4999467;28;45530;-47
2021/11/06 01:54:49;;;;;;;;;7.50;6.50;;;;;21.03;38.93;102554.00;4999135;28;46384;-46
2021/11/06 01:57:16;;;;;;;;;7.50;7.00;;;;;21.07;38.96;102553.00;4999130;28;45343;-45
2021/11/06 01:59:42;;;;;;;;;7.75;6.75;;;;;21.11;38.89;102552.03;4999352;28;45430;-53
2021/11/06 02:02:07;;;;;;;;;8.25;7.75;;;;;21.13;38.80;102553.69;4999715;28;45397;-51
2021/11/06 02:04:33;;;;;;;;;6.00;6.00;;;;;21.15;38.73;102551.88;4998720;28;45363;-49
2021/11/06 02:06:58;;;;;;;;;11.00;6.50;;;;;21.21;39.17;102550.81;4999080;28;45348;-49
2021/11/06 02:09:24;;;;;;;;;6.00;6.00;;;;;21.24;38.79;102557.78;4999075;28;45365;-49
2021/11/06 02:11:49;;;;;;;;;7.00;5.75;;;;;21.26;38.72;102548.03;4999319;28;45313;-55
2021/11/06 02:14:14;;;;;;;;;6.00;6.00;;;;;21.27;39.17;102560.31;4998907;28;46813;-58
2021/11/06 02:16:40;;;;;;;;;4.00;4.00;;;;;21.29;38.53;102559.34;4999266;28;45388;-49
2021/11/06 02:19:06;;;;;;;;;7.00;7.00;;;;;21.31;38.84;102560.16;4999009;28;45442;-54
2021/11/06 02:21:34;;;;;;;;;6.50;5.25;;;;;21.33;38.86;102564.53;4999323;28;45654;-50
2021/11/06 02:24:00;;;;;;;;;6.50;6.50;;;;;21.34;38.70;102561.84;4998498;28;46857;-57
2021/11/06 02:26:25;;;;;;;;;8.25;8.00;;;;;21.34;38.74;102563.59;4981172;28;45382;-49
2021/11/06 02:28:55;;;;;;;;;6.75;5.25;;;;;21.33;38.73;102564.53;4999019;28;45546;-54
2021/11/06 02:31:21;;;;;;;;;6.75;6.25;;;;;21.34;38.36;102560.97;4998992;28;45476;-50
2021/11/06 02:33:49;;;;;;;;;8.00;8.00;;;;;21.34;38.43;102551.28;4980939;28;46910;-52
2021/11/06 02:36:14;;;;;;;;;5.75;5.50;;;;;21.35;38.79;102549.50;4998634;28;45378;-49
2021/11/06 02:38:41;;;;;;;;;6.50;6.50;;;;;21.36;38.84;102556.50;4998938;28;45314;-56
2021/11/06 02:41:06;;;;;;;;;4.00;4.00;;;;;21.36;38.24;102551.22;4998865;28;45365;-58
2021/11/06 02:43:31;;;;;;;;;7.50;7.50;;;;;21.38;38.66;102552.06;4980751;28;46138;-56
2021/11/06 02:45:57;;;;;;;;;5.25;4.75;;;;;21.36;38.56;102549.47;4997165;28;45783;-58
2021/11/06 02:48:22;;;;;;;;;7.00;6.00;;;;;21.36;38.93;102545.97;4997178;28;45474;-55
2021/11/06 02:50:47;;;;;;;;;6.25;6.00;;;;;21.38;38.23;102538.88;4998823;28;45385;-59
2021/11/06 02:53:13;;;;;;;;;10.00;6.75;;;;;21.38;38.35;102536.22;4980727;28;45935;-59
2021/11/06 02:55:39;;;;;;;;;6.50;5.50;;;;;21.36;38.53;102538.03;4998737;28;45306;-60
2021/11/06 02:58:04;;;;;;;;;6.50;6.50;;;;;21.37;38.77;102542.41;4998176;28;45389;-54
2021/11/06 03:00:32;;;;;;;;;7.25;5.50;;;;;21.35;38.27;102531.91;4998607;28;45359;-59
2021/11/06 03:02:58;;;;;;;;;9.50;6.25;;;;;21.36;38.58;102538.94;4998066;28;45294;-63
2021/11/06 03:05:25;;;;;;;;;5.00;5.00;;;;;21.36;38.35;102548.59;4998119;28;45294;-55
2021/11/06 03:07:50;;;;;;;;;9.25;6.00;;;;;21.33;38.12;102549.56;4998183;28;45195;-51
2021/11/06 03:10:17;;;;;;;;;7.00;7.00;;;;;21.34;38.69;102550.41;4998516;28;45255;-57
2021/11/06 03:12:45;;;;;;;;;6.75;6.75;;;;;21.33;38.25;102549.56;4998256;28;45653;-59
2021/11/06 03:15:10;;;;;;;;;8.00;6.00;;;;;21.32;38.05;102553.09;4998303;28;45389;-54
2021/11/06 03:17:36;;;;;;;;;7.00;6.25;;;;;21.31;38.58;102552.25;4998211;28;45578;-56
2021/11/06 03:20:04;;;;;;;;;8.00;6.50;;;;;21.31;38.11;102559.28;4998206;28;45253;-56
2021/11/06 03:22:30;;;;;;;;;6.00;6.00;;;;;21.30;38.12;102565.47;4980083;28;47844;-53
2021/11/06 03:24:56;;;;;;;;;8.25;7.75;;;;;21.28;38.37;102565.53;4997892;28;45255;-59
2021/11/06 03:27:21;;;;;;;;;6.25;6.00;;;;;21.30;38.76;102566.34;4980428;28;45435;-53
2021/11/06 03:29:47;;;;;;;;;8.00;6.25;;;;;21.30;38.29;102566.34;4998194;28;45579;-49
2021/11/06 03:32:12;;;;;;;;;7.00;6.25;;;;;21.28;38.54;102554.09;4998068;28;46522;-51
2021/11/06 03:34:38;;;;;;;;;7.75;7.75;;;;;21.26;38.47;102545.41;4997765;28;45424;-54
2021/11/06 03:37:04;;;;;;;;;6.00;6.00;;;;;21.26;38.02;102550.69;4997837;28;45535;-57
2021/11/06 03:39:29;;;;;;;;;1.75;1.00;;;;;21.25;38.23;102554.22;4997896;28;45462;-57
2021/11/06 03:41:55;;;;;;;;;9.00;6.00;;;;;21.23;38.48;102548.97;4997072;28;45476;-48
2021/11/06 03:44:20;;;;;;;;;5.25;4.50;;;;;21.21;38.47;102556.09;4980008;28;45500;-59
2021/11/06 03:46:46;;;;;;;;;6.75;6.75;;;;;21.21;38.38;102561.38;4997764;28;45372;-50
2021/11/06 03:49:11;;;;;;;;;6.00;6.00;;;;;21.22;38.54;102554.31;4998211;28;45312;-55
2021/11/06 03:51:37;;;;;;;;;7.00;7.00;;;;;21.20;38.45;102559.63;4997520;28;45370;-53
2021/11/06 03:54:03;;;;;;;;;6.00;6.00;;;;;21.19;38.70;102549.13;4997412;28;45228;-51
2021/11/06 03:56:28;;;;;;;;;5.75;5.75;;;;;21.17;38.62;102555.31;4997569;28;45312;-54
2021/11/06 03:58:54;;;;;;;;;5.00;5.00;;;;;21.16;38.77;102552.72;4997747;28;45195;-59
2021/11/06 04:01:19;;;;;;;;;6.75;5.75;;;;;21.14;38.41;102550.16;4997279;28;45815;-49
2021/11/06 04:03:45;;;;;;;;;7.00;6.50;;;;;21.14;38.52;102555.41;4997316;28;45184;-57
2021/11/06 04:06:10;;;;;;;;;7.75;7.00;;;;;21.14;38.75;102567.72;4997363;28;45348;-60
2021/11/06 04:08:36;;;;;;;;;6.50;6.00;;;;;21.10;38.67;102564.31;4997589;28;45176;-55
2021/11/06 04:11:02;;;;;;;;;5.50;5.00;;;;;21.11;38.78;102567.84;4996439;28;45471;-49
2021/11/06 04:13:28;;;;;;;;;5.00;5.00;;;;;21.06;38.45;102561.81;4997149;28;45416;-49
2021/11/06 04:15:53;;;;;;;;;4.00;4.00;;;;;21.07;38.24;102563.56;4997287;28;45335;-54
2021/11/06 04:18:19;;;;;;;;;7.00;5.00;;;;;21.08;38.37;102568.78;4997392;28;45393;-57
2021/11/06 04:20:45;;;;;;;;;5.00;5.00;;;;;21.07;38.58;102564.41;4997329;28;46509;-50
2021/11/06 04:23:10;;;;;;;;;3.00;3.00;;;;;21.05;38.26;102566.25;4997040;28;45285;-61
2021/11/06 04:25:35;;;;;;;;;6.25;5.00;;;;;21.05;38.20;102570.63;4997146;28;45476;-58
2021/11/06 04:28:01;;;;;;;;;7.00;5.50;;;;;21.04;38.76;102574.19;4997178;28;45480;-61
2021/11/06 04:30:26;;;;;;;;;6.25;5.00;;;;;21.04;38.26;102579.47;4996693;28;46324;-55
2021/11/06 04:32:52;;;;;;;;;6.00;6.00;;;;;21.00;38.55;102574.25;4996929;28;45300;-59
2021/11/06 04:35:18;;;;;;;;;3.50;3.50;;;;;21.02;38.40;102576.88;4997191;28;45290;-58
2021/11/06 04:37:43;;;;;;;;;6.00;5.25;;;;;20.98;38.65;102581.38;4980051;28;45570;-60
2021/11/06 04:40:11;;;;;;;;;6.50;5.00;;;;;21.00;38.74;102589.22;4996699;28;46629;-55
2021/11/06 04:42:37;;;;;;;;;4.75;4.75;;;;;20.97;38.46;102584.03;4996835;28;45303;-57
2021/11/06 04:45:04;;;;;;;;;4.75;4.75;;;;;20.96;38.40;102582.31;4996757;28;45346;-57
2021/11/06 04:47:30;;;;;;;;;4.75;4.00;;;;;20.96;38.81;102582.31;4995826;28;45352;-54
2021/11/06 04:49:56;;;;;;;;;6.00;4.25;;;;;20.93;38.52;102575.38;4996453;28;46836;-57
2021/11/06 04:52:22;;;;;;;;;10.00;5.75;;;;;20.93;38.79;102582.44;4996654;28;45802;-62
2021/11/06 04:54:48;;;;;;;;;5.75;5.00;;;;;20.92;38.44;102578.91;4996955;28;45278;-60
2021/11/06 04:57:13;;;;;;;;;5.75;4.25;;;;;20.91;38.58;102576.31;4979219;28;45623;-58
2021/11/06 04:59:38;;;;;;;;;5.00;5.00;;;;;20.90;38.64;102583.34;4996489;28;45485;-60
2021/11/06 05:02:04;;;;;;;;;7.00;5.00;;;;;20.91;38.54;102585.09;4996411;28;45373;-60
2021/11/06 05:04:30;;;;;;;;;4.00;4.00;;;;;20.89;38.79;102592.16;4996463;28;45284;-57
2021/11/06 05:06:55;;;;;;;;;5.00;4.00;;;;;20.89;38.37;102586.06;4996583;28;45270;-54
2021/11/06 05:09:21;;;;;;;;;7.50;5.25;;;;;20.83;38.95;102579.19;4978746;28;48296;-53
2021/11/06 05:11:47;;;;;;;;;8.00;4.25;;;;;20.88;38.40;102590.47;4996909;28;45620;-57
2021/11/06 05:14:12;;;;;;;;;4.00;4.00;;;;;20.86;38.94;102581.75;4996535;28;45514;-54
2021/11/06 05:16:38;;;;;;;;;4.00;4.00;;;;;20.85;38.67;102580.84;4995375;28;45290;-57
2021/11/06 05:19:04;;;;;;;;;4.25;4.00;;;;;20.83;38.47;102576.53;4996110;28;46393;-58
2021/11/06 05:21:36;;;;;;;;;4.00;4.00;;;;;20.83;38.61;102577.44;4997701;28;45454;-59
2021/11/06 05:24:05;;;;;;;;;5.50;5.50;;;;;20.83;38.83;102573.91;4999756;28;45478;-57
2021/11/06 05:26:31;;;;;;;;;4.50;4.25;;;;;20.81;38.75;102578.34;4999984;28;45482;-57
2021/11/06 05:28:57;;;;;;;;;4.75;4.50;;;;;20.82;38.36;102574.81;4999840;28;45824;-59
2021/11/06 05:31:22;;;;;;;;;5.00;5.00;;;;;20.78;38.91;102565.28;4999693;28;45716;-56
2021/11/06 05:33:48;;;;;;;;;5.00;5.00;;;;;20.79;38.24;102570.50;5000065;28;45428;-57
2021/11/06 05:36:13;;;;;;;;;4.00;4.00;;;;;20.76;38.80;102564.47;4998647;28;45269;-57
2021/11/06 05:38:39;;;;;;;;;4.75;3.75;;;;;20.79;38.77;102567.00;4999435;28;46350;-60
2021/11/06 05:41:05;;;;;;;;;4.00;4.00;;;;;20.78;38.50;102566.13;4999561;28;45353;-56
2021/11/06 05:43:30;;;;;;;;;5.75;4.50;;;;;20.77;38.57;102571.47;4999593;28;45274;-58
2021/11/06 05:45:56;;;;;;;;;5.25;5.25;;;;;20.76;38.86;102560.03;4981879;28;45369;-59
2021/11/06 05:48:22;;;;;;;;;4.25;4.25;;;;;20.75;38.48;102562.75;4999788;28;46068;-60
2021/11/06 05:50:48;;;;;;;;;5.50;5.50;;;;;20.73;38.77;102560.09;4999766;28;45345;-61
2021/11/06 05:53:13;;;;;;;;;5.00;4.00;;;;;20.73;38.87;102570.63;4981804;28;45407;-59
2021/11/06 05:55:39;;;;;;;;;3.50;3.50;;;;;20.73;38.32;102573.28;4998450;28;45479;-56
2021/11/06 05:58:05;;;;;;;;;5.25;5.00;;;;;20.70;38.74;102566.31;4999231;28;45503;-52
2021/11/06 06:00:30;;;;;;;;;5.50;5.00;;;;;20.72;38.82;102575.97;4999220;28;45424;-54
2021/11/06 06:02:55;;;;;;;;;5.25;5.25;;;;;20.72;38.68;102578.59;4999217;28;45441;-50
2021/11/06 06:05:21;;;;;;;;;4.75;4.75;;;;;20.72;38.82;102578.59;4999555;28;45666;-55
2021/11/06 06:07:46;;;;;;;;;4.00;4.00;;;;;20.71;38.29;102580.38;4999134;28;45377;-54
2021/11/06 06:10:13;;;;;;;;;5.50;4.75;;;;;20.70;38.46;102582.13;4999110;28;45334;-56
2021/11/06 06:12:40;;;;;;;;;3.75;3.75;;;;;20.68;38.71;102583.94;4999133;28;45427;-61
2021/11/06 06:15:06;;;;;;;;;4.75;4.75;;;;;20.69;38.58;102587.47;4999409;28;45291;-54
2021/11/06 06:17:32;;;;;;;;;4.50;4.50;;;;;20.67;38.57;102590.13;4998828;28;46584;-60
2021/11/06 06:19:57;;;;;;;;;5.00;5.00;;;;;20.66;38.44;102591.06;4998877;28;45497;-61
2021/11/06 06:22:23;;;;;;;;;4.00;4.00;;;;;20.65;38.33;102593.72;4999385;28;45439;-58
2021/11/06 06:24:50;;;;;;;;;5.00;5.00;;;;;20.66;38.24;102601.59;4999393;28;45687;-59
2021/11/06 06:27:15;;;;;;;;;6.25;5.00;;;;;20.65;38.63;102607.75;4998745;28;46631;-60
2021/11/06 06:29:41;;;;;;;;;4.25;4.25;;;;;20.66;38.76;102605.97;4998707;28;45332;-60
2021/11/06 06:32:07;;;;;;;;;4.50;3.75;;;;;20.65;38.54;102605.13;4998825;28;45448;-60
2021/11/06 06:34:32;;;;;;;;;4.00;4.00;;;;;20.62;38.41;102604.31;4998712;28;45226;-57
2021/11/06 06:36:57;;;;;;;;;4.75;4.75;;;;;20.61;38.17;102614.00;4998666;28;45325;-60
2021/11/06 06:39:23;;;;;;;;;7.50;5.75;;;;;20.63;38.69;102609.56;4998992;28;45305;-57
2021/11/06 06:41:48;;;;;;;;;5.00;5.00;;;;;20.61;38.64;102618.44;4998823;28;45404;-57
2021/11/06 06:44:13;;;;;;;;;7.25;6.00;;;;;20.62;38.20;102626.28;4998656;28;45570;-56
2021/11/06 06:46:39;;;;;;;;;4.00;4.00;;;;;20.63;38.58;102628.00;4980761;28;46242;-60
2021/11/06 06:49:04;;;;;;;;;6.25;5.50;;;;;20.63;38.23;102620.09;4998513;28;45361;-55
2021/11/06 06:51:30;;;;;;;;;4.50;4.50;;;;;20.67;38.35;102623.50;4998662;28;45290;-56
2021/11/06 06:53:55;;;;;;;;;4.25;4.00;;;;;20.70;38.71;102612.91;4998790;28;45576;-48
2021/11/06 06:56:20;;;;;;;;;3.75;3.75;;;;;20.74;38.91;102617.19;4998535;28;45330;-59
2021/11/06 06:58:46;;;;;;;;;6.75;6.75;;;;;20.81;38.73;102621.41;4998482;28;45203;-59
2021/11/06 07:01:11;;;;;;;;;4.50;4.50;;;;;20.85;38.39;102617.75;4998352;28;45394;-55
2021/11/06 07:03:36;;;;;;;;;4.25;4.25;;;;;20.89;38.40;102620.31;4980594;28;45468;-57
2021/11/06 07:06:04;;;;;;;;;4.50;4.50;;;;;20.93;38.74;102620.19;4998222;28;45443;-56
2021/11/06 07:08:29;;;;;;;;;4.00;4.00;;;;;20.97;38.50;102619.19;4998234;28;45369;-59
2021/11/06 07:10:55;;;;;;;;;4.75;4.75;;;;;21.03;38.24;102620.78;4981036;28;45290;-58
2021/11/06 07:13:21;;;;;;;;;4.00;4.00;;;;;21.07;38.02;102621.56;4998468;28;45654;-57
2021/11/06 07:15:50;;;;;;;;;6.50;6.50;;;;;21.11;37.92;102625.84;4998004;28;45467;-57
2021/11/06 07:18:16;;;;;;;;;6.25;6.25;;;;;21.15;38.52;102623.06;4998121;28;45269;-52
2021/11/06 07:20:42;;;;;;;;;5.00;5.00;;;;;21.19;37.95;102623.84;4998168;28;45427;-58
2021/11/06 07:23:07;;;;;;;;;8.00;5.75;;;;;21.23;38.38;102633.34;4998349;28;45298;-60
2021/11/06 07:25:33;;;;;;;;;3.75;3.75;;;;;21.27;37.93;102632.38;4997843;28;46529;-57
2021/11/06 07:27:59;;;;;;;;;8.25;5.00;;;;;21.29;38.23;102630.56;4998009;28;45510;-54
2021/11/06 07:30:24;;;;;;;;;4.00;4.00;;;;;21.33;37.91;102627.84;4998407;28;45314;-58
2021/11/06 07:32:50;;;;;;;;;5.50;4.00;;;;;21.31;38.23;102620.81;4998133;28;45374;-59
2021/11/06 07:35:16;;;;;;;;;3.25;3.25;;;;;21.36;37.96;102618.06;4997742;28;45519;-58
2021/11/06 07:37:42;;;;;;;;;5.50;5.50;;;;;21.38;38.28;102620.63;4997646;28;45216;-58
2021/11/06 07:40:09;;;;;;;;;5.25;4.00;;;;;21.39;37.87;102622.34;4980134;28;45377;-57
2021/11/06 07:42:40;;;;;;;;;5.00;5.00;;;;;21.41;37.66;102624.03;4998013;28;45218;-58
2021/11/06 07:45:08;;;;;;;;;4.50;4.00;;;;;21.43;37.97;102626.63;4978706;28;48249;-54
2021/11/06 07:47:34;;;;;;;;;5.00;3.25;;;;;21.42;37.92;102622.28;4997596;28;45243;-59
2021/11/06 07:49:59;;;;;;;;;5.50;5.50;;;;;21.42;37.99;102619.63;4997820;28;45302;-54
2021/11/06 07:52:25;;;;;;;;;3.75;3.75;;;;;21.43;37.69;102621.38;4998200;28;45507;-56
2021/11/06 07:54:50;;;;;;;;;6.00;4.00;;;;;21.46;37.67;102621.25;4997486;28;45249;-49
2021/11/06 07:57:16;;;;;;;;;4.50;4.50;;;;;21.44;37.98;102621.31;4997619;28;45247;-57
2021/11/06 07:59:41;;;;;;;;;4.00;4.00;;;;;21.46;37.90;102631.78;4997664;28;45163;-57
2021/11/06 08:02:06;;;;;;;;;5.00;5.00;;;;;21.46;37.77;102635.31;4997780;28;45382;-53
2021/11/06 08:04:32;;;;;;;;;5.50;4.00;;;;;21.45;37.86;102628.31;4997061;28;46718;-53
2021/11/06 08:07:07;;;;;;;;;5.50;4.00;;;;;21.48;37.57;102635.25;5070337;28;45323;-59
2021/11/06 08:09:32;;;;;;;;;4.75;4.75;;;;;21.46;37.64;102635.31;5053194;28;45320;-56
2021/11/06 08:11:58;;;;;;;;;5.25;5.00;;;;;21.47;37.77;102638.81;5053544;28;45185;-60
2021/11/06 08:14:23;;;;;;;;;3.50;3.00;;;;;21.49;37.50;102638.78;5053443;28;45455;-50
2021/11/06 08:16:50;;;;;;;;;4.75;4.75;;;;;21.47;37.62;102644.97;5052916;28;45451;-53
2021/11/06 08:19:16;;;;;;;;;4.00;4.00;;;;;21.47;37.71;102641.44;5053067;28;45762;-60
2021/11/06 08:21:42;;;;;;;;;5.75;4.00;;;;;21.48;37.66;102645.81;5053047;28;45265;-58
2021/11/06 08:24:08;;;;;;;;;3.00;3.00;;;;;21.47;37.67;102636.16;5053181;28;45435;-57
2021/11/06 08:26:33;;;;;;;;;4.00;3.50;;;;;21.47;37.40;102636.16;5052582;28;46630;-61
2021/11/06 08:28:59;;;;;;;;;4.00;4.00;;;;;21.45;37.65;102637.97;5053141;28;45439;-61
2021/11/06 08:31:24;;;;;;;;;3.75;3.25;;;;;21.45;37.52;102640.63;5053002;28;45596;-59
2021/11/06 08:33:50;;;;;;;;;4.00;3.00;;;;;21.47;37.47;102652.00;5053076;28;45978;-58
2021/11/06 08:36:15;;;;;;;;;5.50;4.25;;;;;21.45;37.66;102636.22;5052729;28;46888;-59
2021/11/06 08:38:41;;;;;;;;;5.50;4.00;;;;;21.45;37.51;102636.22;5052767;28;45541;-60
2021/11/06 08:41:06;;;;;;;;;5.25;5.00;;;;;21.43;37.73;102634.56;5052768;28;45510;-59
2021/11/06 08:43:33;;;;;;;;;3.25;3.00;;;;;21.44;37.67;102636.28;5052888;28;45399;-59
2021/11/06 08:45:59;;;;;;;;;5.00;4.25;;;;;21.43;37.88;102637.19;5052968;28;45469;-60
2021/11/06 08:48:25;;;;;;;;;3.00;3.00;;;;;21.43;37.87;102635.41;5051171;28;45767;-59
2021/11/06 08:50:50;;;;;;;;;3.00;3.00;;;;;21.43;37.60;102634.56;5052683;28;45394;-58
2021/11/06 08:53:16;;;;;;;;;3.75;3.00;;;;;21.42;37.54;102632.81;5052710;28;45566;-60
2021/11/06 08:55:42;;;;;;;;;4.25;3.00;;;;;21.41;37.62;102626.66;5052377;28;47120;-57
2021/11/06 08:58:08;;;;;;;;;3.00;3.00;;;;;21.40;37.25;102626.72;5052320;28;45470;-60
2021/11/06 09:00:39;;;;;;;;;2.50;2.50;;;;;21.39;37.64;102619.72;5052368;28;45391;-57
2021/11/06 09:03:10;;;;;;;;;3.50;2.75;;;;;21.39;37.58;102636.41;5052566;28;45301;-59
2021/11/06 09:05:38;;;;;;;;;4.50;4.25;;;;;21.39;37.87;102638.19;5059806;28;46429;-54
2021/11/06 09:08:04;;;;;;;;;4.00;4.00;;;;;21.39;37.51;102648.72;5072428;28;45348;-59
2021/11/06 09:10:30;;;;;;;;;3.00;3.00;;;;;21.36;37.56;102633.88;5072902;28;45391;-51
2021/11/06 09:12:56;;;;;;;;;4.00;3.00;;;;;21.38;37.67;102639.97;5072664;28;45289;-56
2021/11/06 09:15:21;;;;;;;;;3.50;3.00;;;;;21.35;37.37;102629.50;5072431;28;45482;-57
2021/11/06 09:17:49;;;;;;;;;2.25;2.00;;;;;21.34;37.24;102640.97;5062422;28;45417;-59
2021/11/06 09:20:14;;;;;;;;;5.75;4.00;;;;;21.33;37.38;102635.75;5058890;28;45368;-49
2021/11/06 09:22:40;;;;;;;;;5.00;5.00;;;;;21.33;37.62;102633.97;5059022;28;45241;-56
2021/11/06 09:25:07;;;;;;;;;4.75;4.00;;;;;21.32;37.88;102637.50;5058367;28;46425;-58
2021/11/06 09:27:34;;;;;;;;;4.00;2.75;;;;;21.31;37.76;102631.38;5058848;28;45879;-52
2021/11/06 09:30:00;;;;;;;;;3.00;3.00;;;;;21.30;37.75;102634.03;5059031;28;45442;-58
2021/11/06 09:32:25;;;;;;;;;4.50;4.00;;;;;21.31;37.59;102634.00;5058880;28;45227;-60
2021/11/06 09:34:51;;;;;;;;;3.75;3.75;;;;;21.29;37.93;102630.56;5040358;28;47025;-46
2021/11/06 09:37:16;;;;;;;;;3.00;3.00;;;;;21.26;37.88;102630.63;5058571;28;45351;-50
2021/11/06 09:39:42;;;;;;;;;5.25;3.50;;;;;21.26;37.73;102622.72;5058469;28;45273;-61
2021/11/06 09:42:07;;;;;;;;;4.50;3.25;;;;;21.27;37.76;102627.09;5058792;28;45604;-60
2021/11/06 09:44:37;;;;;;;;;2.50;2.50;;;;;21.27;37.94;102629.72;5058621;28;46535;-48
2021/11/06 09:47:08;;;;;;;;;4.75;3.25;;;;;21.28;37.60;102623.56;5058580;28;45370;-59
2021/11/06 09:49:35;;;;;;;;;3.50;3.50;;;;;21.28;38.09;102631.47;5040517;28;45338;-52
2021/11/06 09:52:00;;;;;;;;;2.50;2.50;;;;;21.26;37.50;102627.16;5058865;28;45341;-60
2021/11/06 09:54:26;;;;;;;;;3.50;3.00;;;;;21.26;37.82;102633.28;5058169;28;45367;-58
2021/11/06 09:56:51;;;;;;;;;3.00;3.00;;;;;21.24;37.69;102627.19;5058170;28;45392;-52
2021/11/06 09:59:16;;;;;;;;;2.00;1.75;;;;;21.24;37.81;102631.59;5058280;28;45327;-58
2021/11/06 10:01:42;;;;;;;;;2.75;2.75;;;;;21.23;37.58;102628.09;5058462;28;45491;-57
2021/11/06 10:04:08;;;;;;;;;2.25;2.25;;;;;21.23;37.98;102621.97;5058030;28;46012;-57
2021/11/06 10:06:36;;;;;;;;;2.00;2.00;;;;;21.24;37.81;102629.81;5058191;28;45443;-55
2021/11/06 10:09:07;;;;;;;;;2.75;2.75;;;;;21.22;38.15;102625.50;5058491;28;45378;-58
2021/11/06 10:11:33;;;;;;;;;4.00;3.00;;;;;21.22;37.89;102626.34;5058512;28;45214;-59
2021/11/06 10:14:05;;;;;;;;;3.50;3.00;;;;;21.20;37.93;102625.56;5057965;28;46657;-57
2021/11/06 10:16:50;;;;;;;;;3.00;3.00;;;;;21.20;37.60;102625.56;5058342;28;45720;-57
2021/11/06 10:19:27;;;;;;;;;2.00;2.00;;;;;21.20;37.62;102622.94;5058085;28;45360;-55
2021/11/06 10:22:16;;;;;;;;;3.00;2.00;;;;;21.18;37.49;102622.09;5058246;28;45453;-55
2021/11/06 10:24:43;;;;;;;;;2.00;2.00;;;;;21.19;37.84;102623.84;5057814;28;46211;-54
2021/11/06 10:27:15;;;;;;;;;1.50;1.50;;;;;21.17;37.47;102620.38;5057941;28;45715;-51
2021/11/06 10:29:40;;;;;;;;;3.50;3.00;;;;;21.19;37.57;102615.03;5056805;28;45488;-53
2021/11/06 10:32:06;;;;;;;;;2.50;2.50;;;;;21.17;37.77;102612.47;5058502;28;45301;-52
2021/11/06 10:34:35;;;;;;;;;2.00;2.00;;;;;21.16;37.55;102619.53;5058068;28;47136;-53
2021/11/06 10:37:10;;;;;;;;;2.25;2.25;;;;;21.16;37.61;102610.72;5057838;28;45391;-53
2021/11/06 10:39:36;;;;;;;;;2.25;2.25;;;;;21.15;37.36;102614.28;5058259;28;45532;-53
2021/11/06 10:42:13;;;;;;;;;3.00;2.00;;;;;21.13;37.71;102609.06;5057905;28;45567;-50
2021/11/06 10:44:40;;;;;;;;;3.00;3.00;;;;;21.14;37.49;102610.78;5057540;28;46730;-48
2021/11/06 10:47:08;;;;;;;;;3.00;2.50;;;;;21.13;37.38;102611.69;5057757;28;45722;-48
2021/11/06 10:49:46;;;;;;;;;2.00;2.00;;;;;21.14;37.69;102602.00;5057840;28;45467;-53
2021/11/06 10:52:18;;;;;;;;;3.00;3.00;;;;;21.12;37.35;102598.53;5057840;28;45462;-48
2021/11/06 10:55:08;;;;;;;;;2.00;2.00;;;;;21.12;37.61;102599.41;5057223;28;45628;-52
2021/11/06 10:57:34;;;;;;;;;1.00;1.00;;;;;21.12;37.61;102603.81;5057595;28;45630;-49
2021/11/06 11:00:06;;;;;;;;;5.25;4.25;;;;;21.12;37.63;102603.81;5057342;28;45245;-46
2021/11/06 11:02:31;;;;;;;;;4.00;4.00;;;;;21.06;37.46;102593.47;5057524;28;45320;-50
2021/11/06 11:04:57;;;;;;;;;1.00;1.00;;;;;21.09;37.57;102599.50;5056764;28;45395;-47
2021/11/06 11:07:22;;;;;;;;;2.00;2.00;;;;;21.09;37.62;102596.88;5057144;28;45336;-48
2021/11/06 11:09:47;;;;;;;;;3.75;3.00;;;;;21.09;37.82;102598.66;5057081;28;45265;-47
2021/11/06 11:12:18;;;;;;;;;3.50;3.00;;;;;21.08;37.58;102587.22;5039482;28;45698;-47
2021/11/06 11:14:55;;;;;;;;;2.75;2.00;;;;;21.09;37.50;102585.47;5056854;28;45482;-54
2021/11/06 11:17:42;;;;;;;;;2.50;2.50;;;;;21.04;37.39;102580.34;5056886;28;45743;-48
2021/11/06 11:20:25;;;;;;;;;2.75;2.75;;;;;21.06;37.57;102583.75;5057420;28;45385;-50